首页
METAR-TAF:

METAR-TAF

机场 :

腓特烈港机场

腓特烈港, 德国

纬度: 47-40N, 经度: 009-31E, 海拔: 416米

当前天气观测

该预报发布于15分钟前的12:20 UTC
风速3节,风向南转西南
温度 2°C
湿度 100%
气压 1020 hPa
能見度: 0600
阴天层高于200英尺

METAR: EDNY 261220Z 20003KT 0600 R24/0800N FG OVC002 02/02 Q1020

时间: 13:35 (12:35 UTC)

预报

该预报发布于1小时和35分钟前的11:00 UTC
预报有效从26日的 12点(UTC)到 27日的 12点(UTC)
风速2节,风向多变
能見度: 0500
阴天层高于200英尺
成为
从 26日的 12点(UTC)到 26日的 14点(UTC)
能見度: 2500
轻雾
几率 30% :
短暂存在
从 26日的 14点(UTC)到 26日的 16点(UTC)
能見度: 4000
散云层高于400英尺
轻雾
成为
从 26日的 16点(UTC)到 26日的 18点(UTC)
能見度: 0700
短暂存在
从 26日的 17点(UTC)到 26日的 24点(UTC)
能見度: 0300
短暂存在
从 27日的 00点(UTC)到 27日的 05点(UTC)
能見度: 1500
多云层高于3000英尺
碎片雾
成为
从 27日的 05点(UTC)到 27日的 08点(UTC)
能見度: 8000
散云层高于3000英尺

TAF: EDNY 261100Z 2612/2712 VRB02KT 0500 FG OVC002 BECMG 2612/2614 2500 BR PROB30 TEMPO 2614/2616 4000 BR SCT004 BECMG 2616/2618 0700 FG TEMPO 2617/2624 0300 FG TEMPO 2700/2705 1500 BCFG BKN030 BECMG 2705/2708 8000 SCT030

超过4000个机场的气象观测和天气预报(METAR&TAF报告)。

可查询的气象台以黄色和红色小点在地图上表示。

将鼠标移到小点上方,可查看气象台名称。

然后点击查看天气观测和预报。

如需切换地图:点击带黑十字的绿色按钮放大地图;点击带横线的绿色按钮缩小地图;或者点击绿色箭头查看邻近地区的地图。


METAR-TAF: